Sundance, Wyoming
Current Conditions -  °F | °C
As of 1:15 AM on Tuesday 21 Oct 2014 (Local Time) from KW43 Reporting Station
Clear Clear  
Wind Chill: 66°   Ceiling: Unl
Heat Index: 66°   Visibility: 10mi
Dew Point: 34°   Wind: 8mph
Humidity: 30%   Direction: 220°SW
Pressure: 29.87"   Gusts: NA
Location:  44.41°N, 104.38°W
Report Text: KW43 210715Z AUTO 22007KT 10SM CLR 19/01 A2987 RMK AO2
Loading
Personal Weather Stations






























Interactive Weather Map
Tropical Storm Tracking
New forecast layout! Learn more

10-Day Weather Forecast

Advertisements
Track Severe Weather on mobile